ASN weather

Alfonsina's Airstrip
Ensenada, Baja California, Mexico

Public forecast

Using degrees Celsius for public forecast. Weather courtesy of forecast.io.

METAR (pilot weather report)

Closest report is (Old) Puerto PeƱasco Airport, 103.4 nm (191.5 km) NNE. Retrieved UTC (0 seconds ago):

TAF (pilot weather forecast)

Closest forecast is General Ignacio P. Garcia International Airport, 180.2 nm (333.7 km) ESE. Retrieved 2019/05/20 06:50 UTC (2 hours ago):

TAF MMHO 200443Z 2006/2106 16006KT P6SM SCT090 BKN200 FM201800 23012KT P6SM BKN090 BKN220 BECMG 2103/2105 33004KT